PWSweather.com
Personal Weather Stations
Station Observations
KJ4AJP
Beautiful Downtown Gardner, Martin, TN 38237

Beautiful Downtown GardnerMartin, TN 38237

Lat: 36.358, Lon: -88.8994

Elevation: 384.3

Station Type: TP1080WC

http://weather.mambm.com/

High Low Average
Temperature 35.4°F1.9°C 17.2°F-8.2°C 25.1°F-3.8°C
Dew Point 20.2°F-6.6°C 10.9°F-11.7°C 16.0°F-8.9°C
Winds 7.6 mph 12.2 kmh Calm Calm 2.0 mph SSW3.2 kmh SSW
Wind Gusts 19.0 mph30.6 kmh -- 7.0 mph11.3 kmh
Humidity 83% 52% 69%
Pressure 30.62 in1036.9 mb 30.42 in1030.1 mb -
Precipitation 0.00 in0.0 mm - -
Hour Temp Dew Point Humidity Winds Wind Gusts Pressure Precip Precip Rate Daily Precip Total
12:00 AM 24.3°F-4.3°C 16.6°F-8.6°C 72% 7.6 mph NNW12.2 kmh NNW 19.0 mph30.6 kmh 30.45 in1031.2 mb 0.00 in0.0 mm 0.00 in0.0 mm 0.00 in0.0 mm
12:15 AM 24.1°F-4.4°C 16.4°F-8.7°C 72% 6.9 mph N11.1 kmh N 14.5 mph23.3 kmh 30.45 in1031.2 mb 0.00 in0.0 mm 0.00 in0.0 mm 0.00 in0.0 mm
12:30 AM 23.9°F-4.5°C 16.2°F-8.8°C 72% 7.6 mph N12.2 kmh N 15.9 mph25.6 kmh 30.45 in1031.2 mb 0.00 in0.0 mm 0.00 in0.0 mm 0.00 in0.0 mm
12:45 AM 23.5°F-4.7°C 15.9°F-8.9°C 72% 4.5 mph N7.2 kmh N 13.6 mph21.9 kmh 30.45 in1031.2 mb 0.00 in0.0 mm 0.00 in0.0 mm 0.00 in0.0 mm
01:00 AM 23.4°F-4.8°C 15.7°F-9.1°C 72% 4.5 mph N7.2 kmh N 11.4 mph18.3 kmh 30.45 in1031.2 mb 0.00 in0.0 mm 0.00 in0.0 mm 0.00 in0.0 mm
01:15 AM 23.0°F-5.0°C 15.7°F-9.1°C 73% 3.1 mph NNW5.0 kmh NNW 8.3 mph13.4 kmh 30.47 in1031.8 mb 0.00 in0.0 mm 0.00 in0.0 mm 0.00 in0.0 mm
01:30 AM 22.6°F-5.2°C 15.6°F-9.1°C 74% 3.8 mph NNW6.1 kmh NNW 9.2 mph14.8 kmh 30.47 in1031.8 mb 0.00 in0.0 mm 0.00 in0.0 mm 0.00 in0.0 mm
01:45 AM 22.5°F-5.3°C 15.5°F-9.2°C 74% 6.9 mph N11.1 kmh N 10.7 mph17.2 kmh 30.48 in1032.2 mb 0.00 in0.0 mm 0.00 in0.0 mm 0.00 in0.0 mm
02:00 AM 22.3°F-5.4°C 15.0°F-9.4°C 73% 5.4 mph N8.7 kmh N 10.7 mph17.2 kmh 30.49 in1032.5 mb 0.00 in0.0 mm 0.00 in0.0 mm 0.00 in0.0 mm
02:15 AM 22.1°F-5.5°C 14.8°F-9.6°C 73% 2.2 mph N3.5 kmh N 12.1 mph19.5 kmh 30.48 in1032.2 mb 0.00 in0.0 mm 0.00 in0.0 mm 0.00 in0.0 mm
02:30 AM 21.9°F-5.6°C 14.6°F-9.7°C 73% 2.2 mph N3.5 kmh N 10.7 mph17.2 kmh 30.49 in1032.5 mb 0.00 in0.0 mm 0.00 in0.0 mm 0.00 in0.0 mm
02:45 AM 21.4°F-5.9°C 14.1°F-9.9°C 73% 3.1 mph NNW5.0 kmh NNW 8.3 mph13.4 kmh 30.49 in1032.5 mb 0.00 in0.0 mm 0.00 in0.0 mm 0.00 in0.0 mm
03:00 AM 21.2°F-6.0°C 13.9°F-10.1°C 73% 3.1 mph N5.0 kmh N 9.8 mph15.8 kmh 30.50 in1032.8 mb 0.00 in0.0 mm 0.00 in0.0 mm 0.00 in0.0 mm
03:15 AM 21.2°F-6.0°C 13.9°F-10.1°C 73% 3.1 mph N5.0 kmh N 14.5 mph23.3 kmh 30.50 in1032.8 mb 0.00 in0.0 mm 0.00 in0.0 mm 0.00 in0.0 mm
03:30 AM 21.2°F-6.0°C 13.6°F-10.2°C 72% 5.4 mph N8.7 kmh N 14.5 mph23.3 kmh 30.51 in1033.2 mb 0.00 in0.0 mm 0.00 in0.0 mm 0.00 in0.0 mm
03:45 AM 21.0°F-6.1°C 13.5°F-10.3°C 72% 5.4 mph N8.7 kmh N 12.1 mph19.5 kmh 30.51 in1033.2 mb 0.00 in0.0 mm 0.00 in0.0 mm 0.00 in0.0 mm
04:00 AM 20.7°F-6.3°C 13.4°F-10.3°C 73% 3.1 mph N5.0 kmh N 9.8 mph15.8 kmh 30.52 in1033.5 mb 0.00 in0.0 mm 0.00 in0.0 mm 0.00 in0.0 mm
04:15 AM 20.3°F-6.5°C 13.1°F-10.5°C 73% 4.5 mph NNW7.2 kmh NNW 13.0 mph20.9 kmh 30.52 in1033.5 mb 0.00 in0.0 mm 0.00 in0.0 mm 0.00 in0.0 mm
04:30 AM 20.1°F-6.6°C 12.9°F-10.6°C 73% 3.1 mph NNW5.0 kmh NNW 13.0 mph20.9 kmh 30.52 in1033.5 mb 0.00 in0.0 mm 0.00 in0.0 mm 0.00 in0.0 mm
04:45 AM 19.9°F-6.7°C 12.7°F-10.7°C 73% 2.2 mph N3.5 kmh N 9.8 mph15.8 kmh 30.53 in1033.9 mb 0.00 in0.0 mm 0.00 in0.0 mm 0.00 in0.0 mm
05:00 AM 19.6°F-6.9°C 12.4°F-10.9°C 73% 3.1 mph N5.0 kmh N 9.8 mph15.8 kmh 30.52 in1033.5 mb 0.00 in0.0 mm 0.00 in0.0 mm 0.00 in0.0 mm
05:15 AM 19.4°F-7.0°C 12.2°F-11.0°C 73% 3.8 mph N6.1 kmh N 9.8 mph15.8 kmh 30.53 in1033.9 mb 0.00 in0.0 mm 0.00 in0.0 mm 0.00 in0.0 mm
05:30 AM 19.0°F-7.2°C 11.9°F-11.2°C 73% 6.0 mph N9.7 kmh N 13.0 mph20.9 kmh 30.54 in1034.2 mb 0.00 in0.0 mm 0.00 in0.0 mm 0.00 in0.0 mm
05:45 AM 18.9°F-7.3°C 11.7°F-11.3°C 73% 6.9 mph N11.1 kmh N 11.4 mph18.3 kmh 30.54 in1034.2 mb 0.00 in0.0 mm 0.00 in0.0 mm 0.00 in0.0 mm
06:00 AM 18.7°F-7.4°C 11.5°F-11.4°C 73% 5.4 mph N8.7 kmh N 12.1 mph19.5 kmh 30.54 in1034.2 mb 0.00 in0.0 mm 0.00 in0.0 mm 0.00 in0.0 mm
06:15 AM 18.3°F-7.6°C 11.5°F-11.4°C 74% 6.0 mph N9.7 kmh N 10.7 mph17.2 kmh 30.54 in1034.2 mb 0.00 in0.0 mm 0.00 in0.0 mm 0.00 in0.0 mm
06:30 AM 18.1°F-7.7°C 11.3°F-11.5°C 74% 4.5 mph N7.2 kmh N 10.7 mph17.2 kmh 30.55 in1034.5 mb 0.00 in0.0 mm 0.00 in0.0 mm 0.00 in0.0 mm
06:45 AM 17.8°F-7.9°C 11.3°F-11.5°C 75% 3.8 mph N6.1 kmh N 10.7 mph17.2 kmh 30.55 in1034.5 mb 0.00 in0.0 mm 0.00 in0.0 mm 0.00 in0.0 mm
07:00 AM 17.4°F-8.1°C 10.9°F-11.7°C 75% 3.1 mph N5.0 kmh N 9.2 mph14.8 kmh 30.56 in1034.9 mb 0.00 in0.0 mm 0.00 in0.0 mm 0.00 in0.0 mm
07:15 AM 17.2°F-8.2°C 11.0°F-11.7°C 76% 3.1 mph N5.0 kmh N 7.6 mph12.2 kmh 30.58 in1035.6 mb 0.00 in0.0 mm 0.00 in0.0 mm 0.00 in0.0 mm
07:30 AM 17.2°F-8.2°C 11.0°F-11.7°C 76% 3.1 mph N5.0 kmh N 7.6 mph12.2 kmh 30.58 in1035.6 mb 0.00 in0.0 mm 0.00 in0.0 mm 0.00 in0.0 mm
07:45 AM 17.6°F-8.0°C 11.7°F-11.3°C 77% 2.2 mph N3.5 kmh N 7.6 mph12.2 kmh 30.59 in1035.9 mb 0.00 in0.0 mm 0.00 in0.0 mm 0.00 in0.0 mm
08:00 AM 18.9°F-7.3°C 12.6°F-10.8°C 76% 5.4 mph N8.7 kmh N 9.2 mph14.8 kmh 30.59 in1035.9 mb 0.00 in0.0 mm 0.00 in0.0 mm 0.00 in0.0 mm
08:15 AM 19.9°F-6.7°C 13.3°F-10.4°C 75% 6.9 mph N11.1 kmh N 12.1 mph19.5 kmh 30.59 in1035.9 mb 0.00 in0.0 mm 0.00 in0.0 mm 0.00 in0.0 mm
08:30 AM 20.5°F-6.4°C 13.3°F-10.4°C 73% 5.4 mph N8.7 kmh N 13.6 mph21.9 kmh 30.60 in1036.2 mb 0.00 in0.0 mm 0.00 in0.0 mm 0.00 in0.0 mm
08:45 AM 21.6°F-5.8°C 14.0°F-10.0°C 72% 3.1 mph N5.0 kmh N 14.5 mph23.3 kmh 30.61 in1036.6 mb 0.00 in0.0 mm 0.00 in0.0 mm 0.00 in0.0 mm
09:00 AM 22.5°F-5.3°C 14.8°F-9.6°C 72% 2.2 mph N3.5 kmh N 9.2 mph14.8 kmh 30.61 in1036.6 mb 0.00 in0.0 mm 0.00 in0.0 mm 0.00 in0.0 mm
09:15 AM 23.0°F-5.0°C 14.7°F-9.6°C 70% 1.6 mph N2.6 kmh N 9.8 mph15.8 kmh 30.61 in1036.6 mb 0.00 in0.0 mm 0.00 in0.0 mm 0.00 in0.0 mm
09:30 AM 23.9°F-4.5°C 15.6°F-9.1°C 70% 5.4 mph NNW8.7 kmh NNW 7.6 mph12.2 kmh 30.62 in1036.9 mb 0.00 in0.0 mm 0.00 in0.0 mm 0.00 in0.0 mm
09:45 AM 24.1°F-4.4°C 15.1°F-9.4°C 68% 3.1 mph NNE5.0 kmh NNE 9.2 mph14.8 kmh 30.61 in1036.6 mb 0.00 in0.0 mm 0.00 in0.0 mm 0.00 in0.0 mm
10:00 AM 25.0°F-3.9°C 16.0°F-8.9°C 68% 0.7 mph N1.1 kmh N 9.8 mph15.8 kmh 30.62 in1036.9 mb 0.00 in0.0 mm 0.00 in0.0 mm 0.00 in0.0 mm
10:15 AM 25.7°F-3.5°C 16.0°F-8.9°C 66% 2.2 mph N3.5 kmh N 9.8 mph15.8 kmh 30.62 in1036.9 mb 0.00 in0.0 mm 0.00 in0.0 mm 0.00 in0.0 mm
10:30 AM 26.8°F-2.9°C 16.6°F-8.6°C 65% 3.8 mph NNE6.1 kmh NNE 9.8 mph15.8 kmh 30.62 in1036.9 mb 0.00 in0.0 mm 0.00 in0.0 mm 0.00 in0.0 mm
10:45 AM 26.6°F-3.0°C 16.1°F-8.8°C 64% 3.8 mph N6.1 kmh N 12.1 mph19.5 kmh 30.61 in1036.6 mb 0.00 in0.0 mm 0.00 in0.0 mm 0.00 in0.0 mm
11:00 AM 27.3°F-2.6°C 17.1°F-8.3°C 65% 3.8 mph NNW6.1 kmh NNW 10.7 mph17.2 kmh 30.61 in1036.6 mb 0.00 in0.0 mm 0.00 in0.0 mm 0.00 in0.0 mm
11:15 AM 27.9°F-2.3°C 16.9°F-8.4°C 63% 1.6 mph N2.6 kmh N 10.7 mph17.2 kmh 30.61 in1036.6 mb 0.00 in0.0 mm 0.00 in0.0 mm 0.00 in0.0 mm
11:30 AM 28.8°F-1.8°C 17.8°F-7.9°C 63% 2.2 mph N3.5 kmh N 11.4 mph18.3 kmh 30.60 in1036.2 mb 0.00 in0.0 mm 0.00 in0.0 mm 0.00 in0.0 mm
11:45 AM 28.9°F-1.7°C 17.2°F-8.2°C 61% 2.2 mph N3.5 kmh N 8.3 mph13.4 kmh 30.59 in1035.9 mb 0.00 in0.0 mm 0.00 in0.0 mm 0.00 in0.0 mm
12:00 PM 30.0°F-1.1°C 18.2°F-7.7°C 61% 3.8 mph NE6.1 kmh NE 6.9 mph11.1 kmh 30.58 in1035.6 mb 0.00 in0.0 mm 0.00 in0.0 mm 0.00 in0.0 mm
12:15 PM 30.7°F-0.7°C 18.9°F-7.3°C 61% 2.2 mph NE3.5 kmh NE 7.6 mph12.2 kmh 30.57 in1035.2 mb 0.00 in0.0 mm 0.00 in0.0 mm 0.00 in0.0 mm
12:30 PM 31.5°F-0.3°C 19.2°F-7.1°C 60% 4.5 mph N7.2 kmh N 9.8 mph15.8 kmh 30.56 in1034.9 mb 0.00 in0.0 mm 0.00 in0.0 mm 0.00 in0.0 mm
12:45 PM 32.0°F0.0°C 19.3°F-7.1°C 59% 1.6 mph NE2.6 kmh NE 6.0 mph9.7 kmh 30.55 in1034.5 mb 0.00 in0.0 mm 0.00 in0.0 mm 0.00 in0.0 mm
01:00 PM 31.6°F-0.2°C 17.4°F-8.1°C 55% 1.6 mph ENE2.6 kmh ENE 9.8 mph15.8 kmh 30.54 in1034.2 mb 0.00 in0.0 mm 0.00 in0.0 mm 0.00 in0.0 mm
01:15 PM 32.5°F0.3°C 19.0°F-7.2°C 57% 1.6 mph NNE2.6 kmh NNE 5.4 mph8.7 kmh 30.53 in1033.9 mb 0.00 in0.0 mm 0.00 in0.0 mm 0.00 in0.0 mm
01:30 PM 32.9°F0.5°C 19.0°F-7.2°C 56% 1.6 mph NE2.6 kmh NE 8.3 mph13.4 kmh 30.53 in1033.9 mb 0.00 in0.0 mm 0.00 in0.0 mm 0.00 in0.0 mm
01:45 PM 33.4°F0.8°C 19.9°F-6.7°C 57% 3.1 mph N5.0 kmh N 6.9 mph11.1 kmh 30.53 in1033.9 mb 0.00 in0.0 mm 0.00 in0.0 mm 0.00 in0.0 mm
02:00 PM 34.0°F1.1°C 19.5°F-6.9°C 55% 2.2 mph NNW3.5 kmh NNW 6.0 mph9.7 kmh 30.52 in1033.5 mb 0.00 in0.0 mm 0.00 in0.0 mm 0.00 in0.0 mm
02:15 PM 34.2°F1.2°C 19.7°F-6.8°C 55% 3.8 mph N6.1 kmh N 7.6 mph12.2 kmh 30.52 in1033.5 mb 0.00 in0.0 mm 0.00 in0.0 mm 0.00 in0.0 mm
02:30 PM 34.2°F1.2°C 19.7°F-6.8°C 55% 3.1 mph N5.0 kmh N 9.2 mph14.8 kmh 30.52 in1033.5 mb 0.00 in0.0 mm 0.00 in0.0 mm 0.00 in0.0 mm
02:45 PM 33.8°F1.0°C 19.4°F-7.0°C 55% 2.2 mph N3.5 kmh N 4.5 mph7.2 kmh 30.52 in1033.5 mb 0.00 in0.0 mm 0.00 in0.0 mm 0.00 in0.0 mm
03:00 PM 34.7°F1.5°C 20.2°F-6.6°C 55% 1.6 mph SSW2.6 kmh SSW 5.4 mph8.7 kmh 30.51 in1033.2 mb 0.00 in0.0 mm 0.00 in0.0 mm 0.00 in0.0 mm
03:15 PM 34.2°F1.2°C 19.3°F-7.1°C 54% 0.7 mph NE1.1 kmh NE 6.9 mph11.1 kmh 30.51 in1033.2 mb 0.00 in0.0 mm 0.00 in0.0 mm 0.00 in0.0 mm
03:30 PM 34.9°F1.6°C 19.5°F-6.9°C 53% Calm Calm 4.5 mph7.2 kmh 30.51 in1033.2 mb 0.00 in0.0 mm 0.00 in0.0 mm 0.00 in0.0 mm
03:45 PM 34.5°F1.4°C 19.2°F-7.1°C 53% Calm Calm 5.4 mph8.7 kmh 30.51 in1033.2 mb 0.00 in0.0 mm 0.00 in0.0 mm 0.00 in0.0 mm
04:00 PM 35.2°F1.8°C 19.8°F-6.8°C 53% 0.7 mph W1.1 kmh W 4.5 mph7.2 kmh 30.51 in1033.2 mb 0.00 in0.0 mm 0.00 in0.0 mm 0.00 in0.0 mm
04:15 PM 35.4°F1.9°C 19.6°F-6.9°C 52% 0.7 mph WSW1.1 kmh WSW 4.5 mph7.2 kmh 30.51 in1033.2 mb 0.00 in0.0 mm 0.00 in0.0 mm 0.00 in0.0 mm
04:30 PM 34.7°F1.5°C 19.3°F-7.1°C 53% 2.2 mph N3.5 kmh N 3.8 mph6.1 kmh 30.50 in1032.8 mb 0.00 in0.0 mm 0.00 in0.0 mm 0.00 in0.0 mm
04:45 PM 33.4°F0.8°C 18.2°F-7.7°C 53% Calm Calm 3.8 mph6.1 kmh 30.50 in1032.8 mb 0.00 in0.0 mm 0.00 in0.0 mm 0.00 in0.0 mm
05:00 PM 32.4°F0.2°C 17.6°F-8.0°C 54% Calm Calm 2.2 mph3.5 kmh 30.50 in1032.8 mb 0.00 in0.0 mm 0.00 in0.0 mm 0.00 in0.0 mm
05:15 PM 30.9°F-0.6°C 17.1°F-8.3°C 56% Calm Calm 1.6 mph2.6 kmh 30.50 in1032.8 mb 0.00 in0.0 mm 0.00 in0.0 mm 0.00 in0.0 mm
05:30 PM 29.5°F-1.4°C 16.6°F-8.6°C 58% Calm Calm 0.7 mph1.1 kmh 30.50 in1032.8 mb 0.00 in0.0 mm 0.00 in0.0 mm 0.00 in0.0 mm
05:45 PM 28.2°F-2.1°C 16.2°F-8.8°C 60% Calm Calm 1.6 mph2.6 kmh 30.50 in1032.8 mb 0.00 in0.0 mm 0.00 in0.0 mm 0.00 in0.0 mm
06:00 PM 27.1°F-2.7°C 15.9°F-8.9°C 62% Calm Calm 1.6 mph2.6 kmh 30.50 in1032.8 mb 0.00 in0.0 mm 0.00 in0.0 mm 0.00 in0.0 mm
06:15 PM 26.1°F-3.3°C 15.9°F-8.9°C 65% Calm Calm 1.6 mph2.6 kmh 30.49 in1032.5 mb 0.00 in0.0 mm 0.00 in0.0 mm 0.00 in0.0 mm
06:30 PM 25.2°F-3.8°C 15.8°F-9.0°C 67% Calm Calm 1.6 mph2.6 kmh 30.50 in1032.8 mb 0.00 in0.0 mm 0.00 in0.0 mm 0.00 in0.0 mm
06:45 PM 24.1°F-4.4°C 15.1°F-9.4°C 68% Calm Calm -- 30.50 in1032.8 mb 0.00 in0.0 mm 0.00 in0.0 mm 0.00 in0.0 mm
07:00 PM 23.4°F-4.8°C 15.1°F-9.4°C 70% Calm Calm -- 30.50 in1032.8 mb 0.00 in0.0 mm 0.00 in0.0 mm 0.00 in0.0 mm
07:15 PM 23.0°F-5.0°C 14.7°F-9.6°C 70% Calm Calm 1.6 mph2.6 kmh 30.49 in1032.5 mb 0.00 in0.0 mm 0.00 in0.0 mm 0.00 in0.0 mm
07:30 PM 22.6°F-5.2°C 14.7°F-9.6°C 71% Calm Calm 0.7 mph1.1 kmh 30.49 in1032.5 mb 0.00 in0.0 mm 0.00 in0.0 mm 0.00 in0.0 mm
07:45 PM 22.5°F-5.3°C 15.8°F-9.0°C 75% Calm Calm 0.7 mph1.1 kmh 30.49 in1032.5 mb 0.00 in0.0 mm 0.00 in0.0 mm 0.00 in0.0 mm
08:00 PM 22.8°F-5.1°C 16.1°F-8.8°C 75% Calm Calm -- 30.49 in1032.5 mb 0.00 in0.0 mm 0.00 in0.0 mm 0.00 in0.0 mm
08:15 PM 23.2°F-4.9°C 16.8°F-8.4°C 76% Calm Calm 0.7 mph1.1 kmh 30.48 in1032.2 mb 0.00 in0.0 mm 0.00 in0.0 mm 0.00 in0.0 mm
08:30 PM 23.4°F-4.8°C 17.0°F-8.3°C 76% Calm Calm -- 30.47 in1031.8 mb 0.00 in0.0 mm 0.00 in0.0 mm 0.00 in0.0 mm
08:45 PM 23.4°F-4.8°C 17.0°F-8.3°C 76% Calm Calm -- 30.47 in1031.8 mb 0.00 in0.0 mm 0.00 in0.0 mm 0.00 in0.0 mm
09:00 PM 23.4°F-4.8°C 17.3°F-8.2°C 77% Calm Calm -- 30.47 in1031.8 mb 0.00 in0.0 mm 0.00 in0.0 mm 0.00 in0.0 mm
09:15 PM 23.2°F-4.9°C 17.4°F-8.1°C 78% Calm Calm 0.7 mph1.1 kmh 30.46 in1031.5 mb 0.00 in0.0 mm 0.00 in0.0 mm 0.00 in0.0 mm
09:30 PM 23.0°F-5.0°C 17.5°F-8.1°C 79% 0.7 mph N1.1 kmh N 1.6 mph2.6 kmh 30.47 in1031.8 mb 0.00 in0.0 mm 0.00 in0.0 mm 0.00 in0.0 mm
09:45 PM 22.8°F-5.1°C 17.6°F-8.0°C 80% 0.7 mph N1.1 kmh N 2.2 mph3.5 kmh 30.47 in1031.8 mb 0.00 in0.0 mm 0.00 in0.0 mm 0.00 in0.0 mm
10:00 PM 22.8°F-5.1°C 18.2°F-7.7°C 82% Calm Calm 1.6 mph2.6 kmh 30.45 in1031.2 mb 0.00 in0.0 mm 0.00 in0.0 mm 0.00 in0.0 mm
10:15 PM 23.0°F-5.0°C 18.6°F-7.4°C 83% Calm Calm 2.2 mph3.5 kmh 30.45 in1031.2 mb 0.00 in0.0 mm 0.00 in0.0 mm 0.00 in0.0 mm
10:30 PM 23.0°F-5.0°C 18.6°F-7.4°C 83% 0.7 mph E1.1 kmh E 1.6 mph2.6 kmh 30.44 in1030.8 mb 0.00 in0.0 mm 0.00 in0.0 mm 0.00 in0.0 mm
10:45 PM 23.5°F-4.7°C 18.9°F-7.3°C 82% 0.7 mph E1.1 kmh E 2.2 mph3.5 kmh 30.43 in1030.5 mb 0.00 in0.0 mm 0.00 in0.0 mm 0.00 in0.0 mm
11:00 PM 23.9°F-4.5°C 19.0°F-7.2°C 81% 1.6 mph SE2.6 kmh SE 3.1 mph5.0 kmh 30.43 in1030.5 mb 0.00 in0.0 mm 0.00 in0.0 mm 0.00 in0.0 mm
11:15 PM 24.4°F-4.2°C 18.9°F-7.3°C 79% Calm Calm 2.2 mph3.5 kmh 30.42 in1030.1 mb 0.00 in0.0 mm 0.00 in0.0 mm 0.00 in0.0 mm
11:30 PM 24.3°F-4.3°C 18.7°F-7.4°C 79% Calm Calm -- 30.43 in1030.5 mb 0.00 in0.0 mm 0.00 in0.0 mm 0.00 in0.0 mm
11:45 PM 23.9°F-4.5°C 18.7°F-7.4°C 80% Calm Calm -- 30.43 in1030.5 mb 0.00 in0.0 mm 0.00 in0.0 mm 0.00 in0.0 mm